sensor_id;sensor_type;location;lat;lon;timestamp;P1;durP1;ratioP1;P2;durP2;ratioP2
18046;SDS011;9148;51.454;13.862;2023-07-20T00:01:25;1.92;;;1.23;;
18046;SDS011;9148;51.454;13.862;2023-07-20T00:03:50;1.88;;;1.40;;
18046;SDS011;9148;51.454;13.862;2023-07-20T00:06:22;1.88;;;1.58;;
18046;SDS011;9148;51.454;13.862;2023-07-20T00:08:49;1.83;;;1.67;;
18046;SDS011;9148;51.454;13.862;2023-07-20T00:11:16;1.25;;;1.20;;
18046;SDS011;9148;51.454;13.862;2023-07-20T00:13:41;1.20;;;1.10;;
18046;SDS011;9148;51.454;13.862;2023-07-20T00:16:07;2.28;;;2.05;;
18046;SDS011;9148;51.454;13.862;2023-07-20T00:18:33;2.97;;;1.40;;
18046;SDS011;9148;51.454;13.862;2023-07-20T00:20:58;1.42;;;1.20;;
18046;SDS011;9148;51.454;13.862;2023-07-20T00:23:27;1.40;;;1.30;;
18046;SDS011;9148;51.454;13.862;2023-07-20T00:25:53;2.53;;;1.60;;
18046;SDS011;9148;51.454;13.862;2023-07-20T00:28:19;3.47;;;1.80;;
18046;SDS011;9148;51.454;13.862;2023-07-20T00:30:45;1.58;;;1.27;;
18046;SDS011;9148;51.454;13.862;2023-07-20T00:33:11;1.90;;;1.45;;
18046;SDS011;9148;51.454;13.862;2023-07-20T00:35:38;2.72;;;1.83;;
18046;SDS011;9148;51.454;13.862;2023-07-20T00:38:04;2.75;;;1.67;;
18046;SDS011;9148;51.454;13.862;2023-07-20T00:40:39;0.88;;;0.88;;
18046;SDS011;9148;51.454;13.862;2023-07-20T00:43:06;2.25;;;1.52;;
18046;SDS011;9148;51.454;13.862;2023-07-20T00:45:34;2.42;;;1.50;;
18046;SDS011;9148;51.454;13.862;2023-07-20T00:48:01;3.10;;;1.48;;
18046;SDS011;9148;51.454;13.862;2023-07-20T00:50:29;1.88;;;1.40;;
18046;SDS011;9148;51.454;13.862;2023-07-20T00:52:56;2.13;;;1.15;;
18046;SDS011;9148;51.454;13.862;2023-07-20T00:55:22;2.90;;;1.95;;
18046;SDS011;9148;51.454;13.862;2023-07-20T00:57:49;1.55;;;1.45;;
18046;SDS011;9148;51.454;13.862;2023-07-20T01:00:16;3.67;;;1.60;;
18046;SDS011;9148;51.454;13.862;2023-07-20T01:02:42;2.08;;;1.58;;
18046;SDS011;9148;51.454;13.862;2023-07-20T01:05:08;1.35;;;1.25;;
18046;SDS011;9148;51.454;13.862;2023-07-20T01:07:35;2.13;;;1.60;;
18046;SDS011;9148;51.454;13.862;2023-07-20T01:10:25;2.53;;;2.28;;
18046;SDS011;9148;51.454;13.862;2023-07-20T01:12:58;1.65;;;1.50;;
18046;SDS011;9148;51.454;13.862;2023-07-20T01:15:27;1.52;;;1.42;;
18046;SDS011;9148;51.454;13.862;2023-07-20T01:17:52;5.20;;;1.85;;
18046;SDS011;9148;51.454;13.862;2023-07-20T01:20:19;3.13;;;1.83;;
18046;SDS011;9148;51.454;13.862;2023-07-20T01:22:55;1.60;;;1.48;;
18046;SDS011;9148;51.454;13.862;2023-07-20T01:29:11;1.65;;;1.40;;
18046;SDS011;9148;51.454;13.862;2023-07-20T01:31:51;2.47;;;1.52;;
18046;SDS011;9148;51.454;13.862;2023-07-20T01:34:19;4.03;;;2.08;;
18046;SDS011;9148;51.454;13.862;2023-07-20T01:36:45;2.35;;;1.88;;
18046;SDS011;9148;51.454;13.862;2023-07-20T01:39:13;1.98;;;1.60;;
18046;SDS011;9148;51.454;13.862;2023-07-20T01:41:39;2.28;;;1.70;;
18046;SDS011;9148;51.454;13.862;2023-07-20T01:44:05;2.72;;;2.10;;
18046;SDS011;9148;51.454;13.862;2023-07-20T01:46:31;3.40;;;1.73;;
18046;SDS011;9148;51.454;13.862;2023-07-20T01:48:56;3.33;;;1.52;;
18046;SDS011;9148;51.454;13.862;2023-07-20T01:51:22;2.33;;;1.70;;
18046;SDS011;9148;51.454;13.862;2023-07-20T01:53:48;1.92;;;1.27;;
18046;SDS011;9148;51.454;13.862;2023-07-20T01:56:13;1.85;;;1.10;;
18046;SDS011;9148;51.454;13.862;2023-07-20T01:58:39;1.33;;;1.23;;
18046;SDS011;9148;51.454;13.862;2023-07-20T02:01:05;3.17;;;2.10;;
18046;SDS011;9148;51.454;13.862;2023-07-20T02:03:30;2.45;;;1.77;;
18046;SDS011;9148;51.454;13.862;2023-07-20T02:05:56;1.65;;;1.15;;
18046;SDS011;9148;51.454;13.862;2023-07-20T02:08:22;1.90;;;1.60;;
18046;SDS011;9148;51.454;13.862;2023-07-20T02:10:48;1.17;;;1.15;;
18046;SDS011;9148;51.454;13.862;2023-07-20T02:13:14;2.22;;;1.38;;
18046;SDS011;9148;51.454;13.862;2023-07-20T02:15:41;1.98;;;1.50;;
18046;SDS011;9148;51.454;13.862;2023-07-20T02:18:07;3.80;;;1.40;;
18046;SDS011;9148;51.454;13.862;2023-07-20T02:20:33;1.65;;;1.45;;
18046;SDS011;9148;51.454;13.862;2023-07-20T02:22:59;1.55;;;1.45;;
18046;SDS011;9148;51.454;13.862;2023-07-20T02:25:25;1.77;;;1.20;;
18046;SDS011;9148;51.454;13.862;2023-07-20T02:27:51;3.60;;;1.30;;
18046;SDS011;9148;51.454;13.862;2023-07-20T02:30:17;2.15;;;1.67;;
18046;SDS011;9148;51.454;13.862;2023-07-20T02:32:43;1.52;;;1.17;;
18046;SDS011;9148;51.454;13.862;2023-07-20T02:35:10;2.33;;;1.63;;
18046;SDS011;9148;51.454;13.862;2023-07-20T02:37:36;2.55;;;1.48;;
18046;SDS011;9148;51.454;13.862;2023-07-20T02:40:02;1.45;;;1.17;;
18046;SDS011;9148;51.454;13.862;2023-07-20T02:42:29;2.33;;;1.63;;
18046;SDS011;9148;51.454;13.862;2023-07-20T02:44:55;2.03;;;1.87;;
18046;SDS011;9148;51.454;13.862;2023-07-20T02:50:55;1.27;;;1.17;;
18046;SDS011;9148;51.454;13.862;2023-07-20T02:53:21;1.27;;;0.93;;
18046;SDS011;9148;51.454;13.862;2023-07-20T02:55:46;3.22;;;1.67;;
18046;SDS011;9148;51.454;13.862;2023-07-20T02:58:12;2.00;;;1.67;;
18046;SDS011;9148;51.454;13.862;2023-07-20T03:00:38;1.50;;;1.40;;
18046;SDS011;9148;51.454;13.862;2023-07-20T03:03:03;1.52;;;1.40;;
18046;SDS011;9148;51.454;13.862;2023-07-20T03:05:30;1.13;;;1.13;;
18046;SDS011;9148;51.454;13.862;2023-07-20T03:07:56;2.42;;;1.25;;
18046;SDS011;9148;51.454;13.862;2023-07-20T03:10:21;1.50;;;1.40;;
18046;SDS011;9148;51.454;13.862;2023-07-20T03:12:47;1.45;;;1.35;;
18046;SDS011;9148;51.454;13.862;2023-07-20T03:15:13;2.00;;;1.27;;
18046;SDS011;9148;51.454;13.862;2023-07-20T03:17:38;2.50;;;1.85;;
18046;SDS011;9148;51.454;13.862;2023-07-20T03:20:04;1.27;;;1.10;;
18046;SDS011;9148;51.454;13.862;2023-07-20T03:22:34;2.40;;;1.95;;
18046;SDS011;9148;51.454;13.862;2023-07-20T03:24:59;2.15;;;1.70;;
18046;SDS011;9148;51.454;13.862;2023-07-20T03:27:25;2.63;;;1.90;;
18046;SDS011;9148;51.454;13.862;2023-07-20T03:29:51;3.22;;;1.45;;
18046;SDS011;9148;51.454;13.862;2023-07-20T03:32:16;1.52;;;1.42;;
18046;SDS011;9148;51.454;13.862;2023-07-20T03:34:42;1.75;;;1.45;;
18046;SDS011;9148;51.454;13.862;2023-07-20T03:37:09;2.20;;;1.95;;
18046;SDS011;9148;51.454;13.862;2023-07-20T03:39:34;1.73;;;1.63;;
18046;SDS011;9148;51.454;13.862;2023-07-20T03:42:00;2.80;;;2.38;;
18046;SDS011;9148;51.454;13.862;2023-07-20T03:44:26;1.85;;;1.75;;
18046;SDS011;9148;51.454;13.862;2023-07-20T03:46:52;2.05;;;1.83;;
18046;SDS011;9148;51.454;13.862;2023-07-20T03:49:17;1.77;;;1.63;;
18046;SDS011;9148;51.454;13.862;2023-07-20T03:51:43;3.10;;;1.95;;
18046;SDS011;9148;51.454;13.862;2023-07-20T03:54:09;3.58;;;2.15;;
18046;SDS011;9148;51.454;13.862;2023-07-20T03:56:34;1.83;;;1.70;;
18046;SDS011;9148;51.454;13.862;2023-07-20T03:59:00;1.70;;;1.60;;
18046;SDS011;9148;51.454;13.862;2023-07-20T04:01:26;4.07;;;2.35;;
18046;SDS011;9148;51.454;13.862;2023-07-20T04:03:52;2.13;;;1.90;;
18046;SDS011;9148;51.454;13.862;2023-07-20T04:06:17;3.40;;;1.85;;
18046;SDS011;9148;51.454;13.862;2023-07-20T04:08:44;3.53;;;1.25;;
18046;SDS011;9148;51.454;13.862;2023-07-20T04:11:12;3.35;;;2.15;;
18046;SDS011;9148;51.454;13.862;2023-07-20T04:13:37;3.05;;;1.50;;
18046;SDS011;9148;51.454;13.862;2023-07-20T04:16:04;3.65;;;2.35;;
18046;SDS011;9148;51.454;13.862;2023-07-20T04:18:29;2.40;;;2.10;;
18046;SDS011;9148;51.454;13.862;2023-07-20T04:20:55;1.90;;;1.80;;
18046;SDS011;9148;51.454;13.862;2023-07-20T04:23:21;3.67;;;2.60;;
18046;SDS011;9148;51.454;13.862;2023-07-20T04:25:47;5.75;;;2.33;;
18046;SDS011;9148;51.454;13.862;2023-07-20T04:28:12;2.83;;;2.20;;
18046;SDS011;9148;51.454;13.862;2023-07-20T04:30:38;2.33;;;1.85;;
18046;SDS011;9148;51.454;13.862;2023-07-20T04:33:07;3.15;;;2.15;;
18046;SDS011;9148;51.454;13.862;2023-07-20T04:35:44;3.38;;;2.50;;
18046;SDS011;9148;51.454;13.862;2023-07-20T04:38:15;2.60;;;2.40;;
18046;SDS011;9148;51.454;13.862;2023-07-20T04:40:42;3.28;;;2.70;;
18046;SDS011;9148;51.454;13.862;2023-07-20T04:43:13;2.95;;;2.40;;
18046;SDS011;9148;51.454;13.862;2023-07-20T04:45:39;2.70;;;2.35;;
18046;SDS011;9148;51.454;13.862;2023-07-20T04:48:06;2.75;;;2.50;;
18046;SDS011;9148;51.454;13.862;2023-07-20T04:50:42;4.78;;;2.80;;
18046;SDS011;9148;51.454;13.862;2023-07-20T04:53:10;2.53;;;2.33;;
18046;SDS011;9148;51.454;13.862;2023-07-20T04:55:39;4.35;;;2.30;;
18046;SDS011;9148;51.454;13.862;2023-07-20T04:58:05;3.28;;;2.72;;
18046;SDS011;9148;51.454;13.862;2023-07-20T05:00:32;3.03;;;2.15;;
18046;SDS011;9148;51.454;13.862;2023-07-20T05:02:58;3.45;;;3.15;;
18046;SDS011;9148;51.454;13.862;2023-07-20T05:05:24;2.53;;;2.33;;
18046;SDS011;9148;51.454;13.862;2023-07-20T05:07:50;3.33;;;2.63;;
18046;SDS011;9148;51.454;13.862;2023-07-20T05:10:15;3.33;;;2.17;;
18046;SDS011;9148;51.454;13.862;2023-07-20T05:12:41;3.80;;;2.70;;
18046;SDS011;9148;51.454;13.862;2023-07-20T05:15:07;3.50;;;2.05;;
18046;SDS011;9148;51.454;13.862;2023-07-20T05:17:34;3.08;;;2.33;;
18046;SDS011;9148;51.454;13.862;2023-07-20T05:19:59;3.83;;;2.83;;
18046;SDS011;9148;51.454;13.862;2023-07-20T05:22:25;3.35;;;2.97;;
18046;SDS011;9148;51.454;13.862;2023-07-20T05:24:51;4.07;;;2.65;;
18046;SDS011;9148;51.454;13.862;2023-07-20T05:27:16;4.72;;;3.38;;
18046;SDS011;9148;51.454;13.862;2023-07-20T05:29:43;2.15;;;1.95;;
18046;SDS011;9148;51.454;13.862;2023-07-20T05:32:12;2.55;;;2.35;;
18046;SDS011;9148;51.454;13.862;2023-07-20T05:34:38;2.85;;;2.17;;
18046;SDS011;9148;51.454;13.862;2023-07-20T05:37:04;2.50;;;2.05;;
18046;SDS011;9148;51.454;13.862;2023-07-20T05:39:32;2.38;;;2.15;;
18046;SDS011;9148;51.454;13.862;2023-07-20T05:41:58;3.13;;;2.47;;
18046;SDS011;9148;51.454;13.862;2023-07-20T05:44:24;5.40;;;2.80;;
18046;SDS011;9148;51.454;13.862;2023-07-20T05:46:49;2.58;;;2.20;;
18046;SDS011;9148;51.454;13.862;2023-07-20T05:49:15;2.20;;;2.00;;
18046;SDS011;9148;51.454;13.862;2023-07-20T05:51:41;3.40;;;2.55;;
18046;SDS011;9148;51.454;13.862;2023-07-20T05:54:07;2.95;;;2.67;;
18046;SDS011;9148;51.454;13.862;2023-07-20T05:56:33;3.25;;;2.25;;
18046;SDS011;9148;51.454;13.862;2023-07-20T05:58:58;3.10;;;2.33;;
18046;SDS011;9148;51.454;13.862;2023-07-20T06:01:24;2.42;;;2.22;;
18046;SDS011;9148;51.454;13.862;2023-07-20T06:03:52;2.30;;;1.55;;
18046;SDS011;9148;51.454;13.862;2023-07-20T06:06:18;2.58;;;2.38;;
18046;SDS011;9148;51.454;13.862;2023-07-20T06:08:44;2.50;;;1.60;;
18046;SDS011;9148;51.454;13.862;2023-07-20T06:11:10;2.10;;;1.90;;
18046;SDS011;9148;51.454;13.862;2023-07-20T06:13:36;2.92;;;2.10;;
18046;SDS011;9148;51.454;13.862;2023-07-20T06:16:02;2.17;;;1.80;;
18046;SDS011;9148;51.454;13.862;2023-07-20T06:18:28;2.65;;;2.33;;
18046;SDS011;9148;51.454;13.862;2023-07-20T06:20:55;4.65;;;2.15;;
18046;SDS011;9148;51.454;13.862;2023-07-20T06:23:20;2.55;;;2.00;;
18046;SDS011;9148;51.454;13.862;2023-07-20T06:25:46;4.32;;;2.55;;
18046;SDS011;9148;51.454;13.862;2023-07-20T06:28:12;3.38;;;2.92;;
18046;SDS011;9148;51.454;13.862;2023-07-20T06:30:38;1.83;;;1.55;;
18046;SDS011;9148;51.454;13.862;2023-07-20T06:33:04;3.90;;;2.35;;
18046;SDS011;9148;51.454;13.862;2023-07-20T06:35:30;3.03;;;2.25;;
18046;SDS011;9148;51.454;13.862;2023-07-20T06:37:56;1.80;;;1.70;;
18046;SDS011;9148;51.454;13.862;2023-07-20T06:40:24;2.45;;;2.25;;
18046;SDS011;9148;51.454;13.862;2023-07-20T06:42:49;3.58;;;2.17;;
18046;SDS011;9148;51.454;13.862;2023-07-20T06:45:15;1.48;;;1.38;;
18046;SDS011;9148;51.454;13.862;2023-07-20T06:47:47;1.92;;;1.80;;
18046;SDS011;9148;51.454;13.862;2023-07-20T06:50:13;2.95;;;2.42;;
18046;SDS011;9148;51.454;13.862;2023-07-20T06:52:38;4.10;;;2.75;;
18046;SDS011;9148;51.454;13.862;2023-07-20T06:55:04;2.28;;;1.95;;
18046;SDS011;9148;51.454;13.862;2023-07-20T06:57:32;2.70;;;2.15;;
18046;SDS011;9148;51.454;13.862;2023-07-20T06:59:57;2.95;;;1.67;;
18046;SDS011;9148;51.454;13.862;2023-07-20T07:02:23;1.38;;;1.27;;
18046;SDS011;9148;51.454;13.862;2023-07-20T07:04:49;1.38;;;1.20;;
18046;SDS011;9148;51.454;13.862;2023-07-20T07:07:14;2.22;;;1.38;;
18046;SDS011;9148;51.454;13.862;2023-07-20T07:09:40;1.38;;;1.27;;
18046;SDS011;9148;51.454;13.862;2023-07-20T07:12:07;1.42;;;0.80;;
18046;SDS011;9148;51.454;13.862;2023-07-20T07:14:33;2.53;;;1.50;;
18046;SDS011;9148;51.454;13.862;2023-07-20T07:16:59;2.67;;;1.55;;
18046;SDS011;9148;51.454;13.862;2023-07-20T07:19:25;1.38;;;1.30;;
18046;SDS011;9148;51.454;13.862;2023-07-20T07:21:51;1.95;;;1.83;;
18046;SDS011;9148;51.454;13.862;2023-07-20T07:24:16;6.20;;;1.30;;
18046;SDS011;9148;51.454;13.862;2023-07-20T07:26:42;1.10;;;0.98;;
18046;SDS011;9148;51.454;13.862;2023-07-20T07:29:08;2.67;;;1.90;;
18046;SDS011;9148;51.454;13.862;2023-07-20T07:31:34;1.33;;;1.13;;
18046;SDS011;9148;51.454;13.862;2023-07-20T07:34:03;1.92;;;1.80;;
18046;SDS011;9148;51.454;13.862;2023-07-20T07:36:30;1.30;;;1.20;;
18046;SDS011;9148;51.454;13.862;2023-07-20T07:38:56;1.83;;;1.20;;
18046;SDS011;9148;51.454;13.862;2023-07-20T07:41:22;1.13;;;1.02;;
18046;SDS011;9148;51.454;13.862;2023-07-20T07:43:48;0.73;;;0.70;;
18046;SDS011;9148;51.454;13.862;2023-07-20T07:46:14;4.28;;;0.90;;
18046;SDS011;9148;51.454;13.862;2023-07-20T07:48:40;0.98;;;0.98;;
18046;SDS011;9148;51.454;13.862;2023-07-20T07:51:05;0.55;;;0.55;;
18046;SDS011;9148;51.454;13.862;2023-07-20T07:53:31;1.70;;;1.13;;
18046;SDS011;9148;51.454;13.862;2023-07-20T07:55:57;0.63;;;0.63;;
18046;SDS011;9148;51.454;13.862;2023-07-20T07:58:23;6.03;;;1.00;;
18046;SDS011;9148;51.454;13.862;2023-07-20T08:00:49;0.30;;;0.30;;
18046;SDS011;9148;51.454;13.862;2023-07-20T08:03:14;2.60;;;0.60;;
18046;SDS011;9148;51.454;13.862;2023-07-20T08:05:40;3.80;;;0.70;;
18046;SDS011;9148;51.454;13.862;2023-07-20T08:08:06;0.50;;;0.32;;
18046;SDS011;9148;51.454;13.862;2023-07-20T08:10:33;0.30;;;0.30;;
18046;SDS011;9148;51.454;13.862;2023-07-20T08:12:59;0.40;;;0.40;;
18046;SDS011;9148;51.454;13.862;2023-07-20T08:15:30;0.73;;;0.47;;
18046;SDS011;9148;51.454;13.862;2023-07-20T08:17:56;0.20;;;0.20;;
18046;SDS011;9148;51.454;13.862;2023-07-20T08:20:22;0.55;;;0.55;;
18046;SDS011;9148;51.454;13.862;2023-07-20T08:22:51;0.68;;;0.52;;
18046;SDS011;9148;51.454;13.862;2023-07-20T08:25:19;0.50;;;0.40;;
18046;SDS011;9148;51.454;13.862;2023-07-20T08:27:45;0.52;;;0.50;;
18046;SDS011;9148;51.454;13.862;2023-07-20T08:30:12;2.38;;;0.57;;
18046;SDS011;9148;51.454;13.862;2023-07-20T08:32:38;0.40;;;0.30;;
18046;SDS011;9148;51.454;13.862;2023-07-20T08:35:04;0.22;;;0.22;;
18046;SDS011;9148;51.454;13.862;2023-07-20T08:37:31;0.75;;;0.75;;
18046;SDS011;9148;51.454;13.862;2023-07-20T08:39:56;0.90;;;0.43;;
18046;SDS011;9148;51.454;13.862;2023-07-20T08:42:22;0.60;;;0.60;;
18046;SDS011;9148;51.454;13.862;2023-07-20T08:44:48;0.60;;;0.60;;
18046;SDS011;9148;51.454;13.862;2023-07-20T08:47:15;0.88;;;0.50;;
18046;SDS011;9148;51.454;13.862;2023-07-20T08:49:41;0.52;;;0.52;;
18046;SDS011;9148;51.454;13.862;2023-07-20T08:52:07;0.68;;;0.40;;
18046;SDS011;9148;51.454;13.862;2023-07-20T08:54:34;0.82;;;0.52;;
18046;SDS011;9148;51.454;13.862;2023-07-20T08:57:01;1.13;;;0.80;;
18046;SDS011;9148;51.454;13.862;2023-07-20T08:59:29;0.47;;;0.47;;
18046;SDS011;9148;51.454;13.862;2023-07-20T09:01:59;0.47;;;0.40;;
18046;SDS011;9148;51.454;13.862;2023-07-20T09:04:25;1.08;;;0.52;;
18046;SDS011;9148;51.454;13.862;2023-07-20T09:06:51;1.55;;;0.75;;
18046;SDS011;9148;51.454;13.862;2023-07-20T09:09:17;0.47;;;0.30;;
18046;SDS011;9148;51.454;13.862;2023-07-20T09:11:43;0.55;;;0.45;;
18046;SDS011;9148;51.454;13.862;2023-07-20T09:14:13;1.80;;;0.60;;
18046;SDS011;9148;51.454;13.862;2023-07-20T09:16:55;0.30;;;0.30;;
18046;SDS011;9148;51.454;13.862;2023-07-20T09:19:21;0.80;;;0.68;;
18046;SDS011;9148;51.454;13.862;2023-07-20T09:21:51;0.98;;;0.50;;
18046;SDS011;9148;51.454;13.862;2023-07-20T09:24:17;0.52;;;0.52;;
18046;SDS011;9148;51.454;13.862;2023-07-20T09:26:45;0.40;;;0.40;;
18046;SDS011;9148;51.454;13.862;2023-07-20T09:29:13;0.32;;;0.32;;
18046;SDS011;9148;51.454;13.862;2023-07-20T09:31:39;1.88;;;0.80;;
18046;SDS011;9148;51.454;13.862;2023-07-20T09:34:06;0.60;;;0.30;;
18046;SDS011;9148;51.454;13.862;2023-07-20T09:36:35;1.05;;;0.60;;
18046;SDS011;9148;51.454;13.862;2023-07-20T09:39:03;0.88;;;0.88;;
18046;SDS011;9148;51.454;13.862;2023-07-20T09:41:29;0.75;;;0.75;;
18046;SDS011;9148;51.454;13.862;2023-07-20T09:44:05;1.05;;;0.70;;
18046;SDS011;9148;51.454;13.862;2023-07-20T09:46:43;0.30;;;0.30;;
18046;SDS011;9148;51.454;13.862;2023-07-20T09:49:09;0.60;;;0.40;;
18046;SDS011;9148;51.454;13.862;2023-07-20T09:51:35;0.73;;;0.50;;
18046;SDS011;9148;51.454;13.862;2023-07-20T09:54:02;0.77;;;0.77;;
18046;SDS011;9148;51.454;13.862;2023-07-20T09:56:29;0.32;;;0.32;;
18046;SDS011;9148;51.454;13.862;2023-07-20T09:58:56;0.95;;;0.60;;
18046;SDS011;9148;51.454;13.862;2023-07-20T10:01:23;0.30;;;0.30;;
18046;SDS011;9148;51.454;13.862;2023-07-20T10:03:53;0.28;;;0.25;;
18046;SDS011;9148;51.454;13.862;2023-07-20T10:06:22;3.42;;;0.65;;
18046;SDS011;9148;51.454;13.862;2023-07-20T10:08:52;0.75;;;0.63;;
18046;SDS011;9148;51.454;13.862;2023-07-20T10:11:21;0.22;;;0.22;;
18046;SDS011;9148;51.454;13.862;2023-07-20T10:13:52;0.38;;;0.38;;
18046;SDS011;9148;51.454;13.862;2023-07-20T10:16:22;1.27;;;0.55;;
18046;SDS011;9148;51.454;13.862;2023-07-20T10:19:22;0.40;;;0.30;;
18046;SDS011;9148;51.454;13.862;2023-07-20T10:21:56;0.88;;;0.40;;
18046;SDS011;9148;51.454;13.862;2023-07-20T10:24:29;0.20;;;0.20;;
18046;SDS011;9148;51.454;13.862;2023-07-20T10:26:57;0.43;;;0.43;;
18046;SDS011;9148;51.454;13.862;2023-07-20T10:29:23;1.23;;;0.63;;
18046;SDS011;9148;51.454;13.862;2023-07-20T10:31:49;0.40;;;0.40;;
18046;SDS011;9148;51.454;13.862;2023-07-20T10:34:15;0.28;;;0.28;;
18046;SDS011;9148;51.454;13.862;2023-07-20T10:36:45;0.25;;;0.25;;
18046;SDS011;9148;51.454;13.862;2023-07-20T10:42:03;1.35;;;0.30;;
18046;SDS011;9148;51.454;13.862;2023-07-20T10:44:33;0.20;;;0.20;;
18046;SDS011;9148;51.454;13.862;2023-07-20T10:47:20;0.38;;;0.32;;
18046;SDS011;9148;51.454;13.862;2023-07-20T10:50:01;0.10;;;0.10;;
18046;SDS011;9148;51.454;13.862;2023-07-20T10:52:36;0.40;;;0.40;;
18046;SDS011;9148;51.454;13.862;2023-07-20T10:55:15;0.40;;;0.30;;
18046;SDS011;9148;51.454;13.862;2023-07-20T10:57:41;0.32;;;0.32;;
18046;SDS011;9148;51.454;13.862;2023-07-20T11:00:08;0.30;;;0.25;;
18046;SDS011;9148;51.454;13.862;2023-07-20T11:02:42;1.15;;;0.57;;
18046;SDS011;9148;51.454;13.862;2023-07-20T11:08:03;0.70;;;0.38;;
18046;SDS011;9148;51.454;13.862;2023-07-20T11:10:31;0.32;;;0.22;;
18046;SDS011;9148;51.454;13.862;2023-07-20T11:13:16;0.35;;;0.35;;
18046;SDS011;9148;51.454;13.862;2023-07-20T11:15:46;0.65;;;0.45;;
18046;SDS011;9148;51.454;13.862;2023-07-20T11:18:21;0.55;;;0.55;;
18046;SDS011;9148;51.454;13.862;2023-07-20T11:20:51;0.32;;;0.32;;
18046;SDS011;9148;51.454;13.862;2023-07-20T11:23:19;0.20;;;0.20;;
18046;SDS011;9148;51.454;13.862;2023-07-20T11:25:45;0.43;;;0.20;;
18046;SDS011;9148;51.454;13.862;2023-07-20T11:28:11;0.40;;;0.38;;
18046;SDS011;9148;51.454;13.862;2023-07-20T11:30:39;0.40;;;0.40;;
18046;SDS011;9148;51.454;13.862;2023-07-20T11:33:05;0.57;;;0.40;;
18046;SDS011;9148;51.454;13.862;2023-07-20T11:35:43;0.30;;;0.30;;
18046;SDS011;9148;51.454;13.862;2023-07-20T11:38:13;1.05;;;0.60;;
18046;SDS011;9148;51.454;13.862;2023-07-20T11:40:43;2.03;;;0.68;;
18046;SDS011;9148;51.454;13.862;2023-07-20T11:43:10;0.43;;;0.30;;
18046;SDS011;9148;51.454;13.862;2023-07-20T11:45:39;0.28;;;0.28;;
18046;SDS011;9148;51.454;13.862;2023-07-20T11:48:05;1.50;;;0.70;;
18046;SDS011;9148;51.454;13.862;2023-07-20T11:50:31;1.15;;;0.50;;
18046;SDS011;9148;51.454;13.862;2023-07-20T11:52:57;0.20;;;0.20;;
18046;SDS011;9148;51.454;13.862;2023-07-20T11:55:23;0.20;;;0.20;;
18046;SDS011;9148;51.454;13.862;2023-07-20T11:58:02;0.68;;;0.32;;
18046;SDS011;9148;51.454;13.862;2023-07-20T12:00:32;0.45;;;0.45;;
18046;SDS011;9148;51.454;13.862;2023-07-20T12:02:58;1.60;;;0.47;;
18046;SDS011;9148;51.454;13.862;2023-07-20T12:05:24;0.40;;;0.40;;
18046;SDS011;9148;51.454;13.862;2023-07-20T12:07:54;0.32;;;0.32;;
18046;SDS011;9148;51.454;13.862;2023-07-20T12:10:24;0.30;;;0.30;;
18046;SDS011;9148;51.454;13.862;2023-07-20T12:12:53;0.45;;;0.40;;
18046;SDS011;9148;51.454;13.862;2023-07-20T12:15:23;0.60;;;0.50;;
18046;SDS011;9148;51.454;13.862;2023-07-20T12:17:57;1.17;;;0.60;;
18046;SDS011;9148;51.454;13.862;2023-07-20T12:20:28;1.08;;;0.32;;
18046;SDS011;9148;51.454;13.862;2023-07-20T12:22:56;3.13;;;0.60;;
18046;SDS011;9148;51.454;13.862;2023-07-20T12:25:43;1.60;;;0.70;;
18046;SDS011;9148;51.454;13.862;2023-07-20T12:28:12;2.22;;;0.43;;
18046;SDS011;9148;51.454;13.862;2023-07-20T12:30:40;0.45;;;0.40;;
18046;SDS011;9148;51.454;13.862;2023-07-20T12:33:07;0.50;;;0.50;;
18046;SDS011;9148;51.454;13.862;2023-07-20T12:35:33;0.60;;;0.60;;
18046;SDS011;9148;51.454;13.862;2023-07-20T12:37:59;0.50;;;0.50;;
18046;SDS011;9148;51.454;13.862;2023-07-20T12:40:25;0.52;;;0.52;;
18046;SDS011;9148;51.454;13.862;2023-07-20T12:42:51;1.05;;;0.95;;
18046;SDS011;9148;51.454;13.862;2023-07-20T12:45:16;0.63;;;0.50;;
18046;SDS011;9148;51.454;13.862;2023-07-20T12:47:42;0.93;;;0.85;;
18046;SDS011;9148;51.454;13.862;2023-07-20T12:50:09;0.50;;;0.50;;
18046;SDS011;9148;51.454;13.862;2023-07-20T12:52:38;1.75;;;1.10;;
18046;SDS011;9148;51.454;13.862;2023-07-20T12:55:08;3.35;;;0.65;;
18046;SDS011;9148;51.454;13.862;2023-07-20T12:57:35;1.67;;;0.50;;
18046;SDS011;9148;51.454;13.862;2023-07-20T13:00:02;1.63;;;0.77;;
18046;SDS011;9148;51.454;13.862;2023-07-20T13:02:33;0.52;;;0.52;;
18046;SDS011;9148;51.454;13.862;2023-07-20T13:05:03;0.60;;;0.60;;
18046;SDS011;9148;51.454;13.862;2023-07-20T13:07:38;1.20;;;0.70;;
18046;SDS011;9148;51.454;13.862;2023-07-20T13:10:06;1.42;;;0.40;;
18046;SDS011;9148;51.454;13.862;2023-07-20T13:12:34;0.47;;;0.47;;
18046;SDS011;9148;51.454;13.862;2023-07-20T13:15:04;0.57;;;0.57;;
18046;SDS011;9148;51.454;13.862;2023-07-20T13:17:32;0.95;;;0.45;;
18046;SDS011;9148;51.454;13.862;2023-07-20T13:20:04;1.15;;;0.47;;
18046;SDS011;9148;51.454;13.862;2023-07-20T13:22:31;0.43;;;0.43;;
18046;SDS011;9148;51.454;13.862;2023-07-20T13:24:57;0.38;;;0.38;;
18046;SDS011;9148;51.454;13.862;2023-07-20T13:27:23;1.60;;;0.85;;
18046;SDS011;9148;51.454;13.862;2023-07-20T13:29:50;1.00;;;0.52;;
18046;SDS011;9148;51.454;13.862;2023-07-20T13:32:16;0.32;;;0.32;;
18046;SDS011;9148;51.454;13.862;2023-07-20T13:34:43;0.43;;;0.40;;
18046;SDS011;9148;51.454;13.862;2023-07-20T13:37:13;0.63;;;0.63;;
18046;SDS011;9148;51.454;13.862;2023-07-20T13:39:38;0.40;;;0.40;;
18046;SDS011;9148;51.454;13.862;2023-07-20T13:42:04;0.73;;;0.70;;
18046;SDS011;9148;51.454;13.862;2023-07-20T13:44:31;0.50;;;0.50;;
18046;SDS011;9148;51.454;13.862;2023-07-20T13:46:57;0.75;;;0.50;;
18046;SDS011;9148;51.454;13.862;2023-07-20T13:49:23;0.80;;;0.80;;
18046;SDS011;9148;51.454;13.862;2023-07-20T13:51:49;0.60;;;0.55;;
18046;SDS011;9148;51.454;13.862;2023-07-20T13:54:15;0.55;;;0.55;;
18046;SDS011;9148;51.454;13.862;2023-07-20T13:56:40;0.70;;;0.70;;
18046;SDS011;9148;51.454;13.862;2023-07-20T13:59:06;2.90;;;0.80;;
18046;SDS011;9148;51.454;13.862;2023-07-20T14:01:32;0.50;;;0.50;;
18046;SDS011;9148;51.454;13.862;2023-07-20T14:04:01;0.50;;;0.50;;
18046;SDS011;9148;51.454;13.862;2023-07-20T14:06:31;0.60;;;0.60;;
18046;SDS011;9148;51.454;13.862;2023-07-20T14:08:58;0.57;;;0.57;;
18046;SDS011;9148;51.454;13.862;2023-07-20T14:11:24;1.85;;;0.82;;
18046;SDS011;9148;51.454;13.862;2023-07-20T14:13:51;0.40;;;0.40;;
18046;SDS011;9148;51.454;13.862;2023-07-20T14:16:23;0.70;;;0.70;;
18046;SDS011;9148;51.454;13.862;2023-07-20T14:18:52;0.88;;;0.70;;
18046;SDS011;9148;51.454;13.862;2023-07-20T14:21:18;1.15;;;0.60;;
18046;SDS011;9148;51.454;13.862;2023-07-20T14:23:45;1.77;;;0.65;;
18046;SDS011;9148;51.454;13.862;2023-07-20T14:26:13;1.00;;;0.70;;
18046;SDS011;9148;51.454;13.862;2023-07-20T14:28:39;1.17;;;0.93;;
18046;SDS011;9148;51.454;13.862;2023-07-20T14:31:05;0.45;;;0.45;;
18046;SDS011;9148;51.454;13.862;2023-07-20T14:33:31;1.40;;;0.60;;
18046;SDS011;9148;51.454;13.862;2023-07-20T14:35:57;0.70;;;0.47;;
18046;SDS011;9148;51.454;13.862;2023-07-20T14:38:22;0.73;;;0.70;;
18046;SDS011;9148;51.454;13.862;2023-07-20T14:40:48;0.35;;;0.32;;
18046;SDS011;9148;51.454;13.862;2023-07-20T14:43:14;1.35;;;0.80;;
18046;SDS011;9148;51.454;13.862;2023-07-20T14:45:40;0.77;;;0.55;;
18046;SDS011;9148;51.454;13.862;2023-07-20T14:48:06;0.55;;;0.55;;
18046;SDS011;9148;51.454;13.862;2023-07-20T14:50:38;0.50;;;0.50;;
18046;SDS011;9148;51.454;13.862;2023-07-20T14:53:04;0.50;;;0.30;;
18046;SDS011;9148;51.454;13.862;2023-07-20T14:55:29;0.50;;;0.35;;
18046;SDS011;9148;51.454;13.862;2023-07-20T14:57:55;0.38;;;0.30;;
18046;SDS011;9148;51.454;13.862;2023-07-20T15:00:21;0.20;;;0.20;;
18046;SDS011;9148;51.454;13.862;2023-07-20T15:02:46;0.40;;;0.40;;